Time;durP1;ratioP1;P1;durP2;ratioP2;P2;SDS_P1;SDS_P2;PMS_P1;PMS_P2;Temp;Humidity;BMP_temperature;BMP_pressure;BME280_temperature;BME280_humidity;BME280_pressure;Samples;Min_cycle;Max_cycle;Signal;HPM_P1;HPM_P2
2022/12/06 00:01:39;;;;;;;20.77;13.50;;;;;;;2.69;96.74;101560.31;5056639;28;20490;-62
2022/12/06 00:04:07;;;;;;;24.73;14.50;;;;;;;2.72;97.13;101554.47;5063915;28;20049;-62
2022/12/06 00:06:37;;;;;;;22.05;13.50;;;;;;;2.72;97.04;101554.47;5065672;28;20025;-62
2022/12/06 00:09:03;;;;;;;22.95;13.85;;;;;;;2.73;97.13;101556.16;5054816;28;20032;-62
2022/12/06 00:11:31;;;;;;;21.45;14.27;;;;;;;2.74;97.33;101547.72;5065046;28;20491;-61
2022/12/06 00:13:59;;;;;;;21.52;13.38;;;;;;;2.74;96.67;101543.47;5045906;28;20029;-62
2022/12/06 00:16:25;;;;;;;24.45;14.27;;;;;;;2.75;97.01;101554.56;5044932;28;20561;-62
2022/12/06 00:18:51;;;;;;;21.33;13.18;;;;;;;2.76;97.21;101543.53;5057451;28;20494;-62
2022/12/06 00:21:24;;;;;;;24.08;14.00;;;;;;;2.77;97.22;101542.72;5052242;28;20040;-62
2022/12/06 00:23:52;;;;;;;17.95;12.27;;;;;;;2.76;96.86;101539.28;5053186;28;20037;-62
2022/12/06 00:26:18;;;;;;;21.25;14.07;;;;;;;2.74;96.69;101533.28;5064798;28;20033;-62
2022/12/06 00:28:44;;;;;;;19.85;14.13;;;;;;;2.75;97.39;101541.81;5065061;28;20047;-62
2022/12/06 00:31:13;;;;;;;21.25;13.52;;;;;;;2.77;96.80;101537.59;5062894;28;20131;-62
2022/12/06 00:33:39;;;;;;;23.40;14.65;;;;;;;2.76;96.69;101540.97;5064902;28;20036;-62
2022/12/06 00:36:07;;;;;;;21.83;12.75;;;;;;;2.77;97.01;101535.06;5063110;28;20057;-62
2022/12/06 00:38:33;;;;;;;19.30;12.15;;;;;;;2.78;96.73;101524.91;5044559;28;20040;-62
2022/12/06 00:41:08;;;;;;;22.08;13.70;;;;;;;2.80;96.61;101530.94;5042957;28;20557;-62
2022/12/06 00:43:35;;;;;;;16.67;11.40;;;;;;;2.80;97.07;101536.03;5050202;28;20040;-62
2022/12/06 00:46:01;;;;;;;17.00;11.32;;;;;;;2.81;97.13;101530.13;5046830;28;20052;-62
2022/12/06 00:48:27;;;;;;;18.80;12.43;;;;;;;2.82;97.52;101538.63;5044840;28;20514;-62
2022/12/06 00:50:53;;;;;;;19.27;12.80;;;;;;;2.82;97.15;101536.94;5042676;28;20037;-62
2022/12/06 00:53:18;;;;;;;18.40;12.00;;;;;;;2.84;97.44;101537.91;5054404;28;20029;-62
2022/12/06 00:55:45;;;;;;;17.92;12.07;;;;;;;2.86;97.09;101537.94;5059124;28;20040;-62
2022/12/06 00:58:11;;;;;;;19.42;11.95;;;;;;;2.87;97.41;101530.31;5044601;28;20057;-62
2022/12/06 01:00:37;;;;;;;21.50;13.02;;;;;;;2.87;97.50;101527.75;5042815;28;20453;-62
2022/12/06 01:03:03;;;;;;;19.35;13.27;;;;;;;2.88;96.82;101529.50;5044457;28;20036;-62
2022/12/06 01:05:28;;;;;;;19.98;12.48;;;;;;;2.90;97.20;101527.88;5052694;28;20024;-62
2022/12/06 01:07:54;;;;;;;24.50;14.18;;;;;;;2.91;97.19;101529.63;5064280;28;20612;-62
2022/12/06 01:10:20;;;;;;;20.95;13.40;;;;;;;2.92;96.66;101525.38;5052239;28;20044;-62
2022/12/06 01:12:45;;;;;;;18.40;12.88;;;;;;;2.91;96.52;101524.50;5044021;28;20040;-62
2022/12/06 01:15:11;;;;;;;13.50;9.80;;;;;;;2.92;97.28;101531.38;5026594;28;20040;-62
2022/12/06 01:17:36;;;;;;;18.10;11.55;;;;;;;2.93;96.53;101520.31;5052135;28;20497;-62
2022/12/06 01:20:04;;;;;;;19.25;12.00;;;;;;;2.93;97.12;101527.13;5057878;28;20037;-62
2022/12/06 01:22:29;;;;;;;21.80;13.15;;;;;;;2.95;97.39;101528.91;5051084;28;20040;-62
2022/12/06 01:24:55;;;;;;;22.42;13.90;;;;;;;2.93;96.79;101533.06;5042450;28;20123;-62
2022/12/06 01:27:20;;;;;;;21.55;12.93;;;;;;;2.94;97.13;101534.81;5044076;28;20505;-62
2022/12/06 01:29:45;;;;;;;19.20;12.55;;;;;;;2.94;96.67;101533.94;5041193;28;20056;-61
2022/12/06 01:32:11;;;;;;;20.35;12.98;;;;;;;2.94;96.68;101532.28;5052209;28;20568;-62
2022/12/06 01:34:37;;;;;;;24.42;13.85;;;;;;;2.95;97.11;101535.69;5061781;28;20130;-62
2022/12/06 01:37:03;;;;;;;21.05;14.07;;;;;;;2.95;97.36;101535.69;5052042;28;20390;-62
2022/12/06 01:39:28;;;;;;;21.70;13.40;;;;;;;2.96;97.38;101533.19;5056163;28;20029;-63
2022/12/06 01:41:54;;;;;;;23.45;13.02;;;;;;;2.99;97.50;101532.44;5058877;28;20478;-62
2022/12/06 01:44:38;;;;;;;21.38;13.27;;;;;;;2.96;97.40;101532.34;5063368;28;20044;-62
2022/12/06 01:47:04;;;;;;;23.70;14.15;;;;;;;2.97;97.18;101529.81;5063725;28;20036;-62
2022/12/06 01:49:34;;;;;;;23.27;13.55;;;;;;;3.00;97.53;101529.06;5062984;28;20060;-62
2022/12/06 01:52:04;;;;;;;23.27;13.82;;;;;;;3.02;97.40;101531.69;5048100;28;20083;-61
2022/12/06 01:54:31;;;;;;;20.23;13.07;;;;;;;3.00;97.54;101534.16;5060779;28;20039;-62
2022/12/06 01:56:58;;;;;;;21.90;12.60;;;;;;;3.03;97.01;101530.84;5063498;28;20089;-62
2022/12/06 01:59:24;;;;;;;21.02;12.98;;;;;;;3.04;97.29;101527.47;5062929;28;20097;-62
2022/12/06 02:01:50;;;;;;;25.58;15.07;;;;;;;3.03;97.54;101523.19;5061354;28;20033;-62
2022/12/06 02:04:17;;;;;;;19.88;12.90;;;;;;;3.02;97.81;101521.47;5062211;28;20036;-62
2022/12/06 02:06:44;;;;;;;23.23;13.65;;;;;;;3.04;97.59;101522.38;5062593;28;20059;-61
2022/12/06 02:09:10;;;;;;;21.15;12.85;;;;;;;3.04;97.68;101520.69;5045367;28;20037;-62
2022/12/06 02:11:35;;;;;;;25.95;14.70;;;;;;;3.06;97.60;101524.16;5056609;28;20043;-62
2022/12/06 02:14:06;;;;;;;21.00;13.52;;;;;;;3.05;97.65;101516.47;5062867;28;20029;-62
2022/12/06 02:16:31;;;;;;;22.45;13.68;;;;;;;3.04;97.92;101518.13;5062551;28;20071;-62
2022/12/06 02:19:12;;;;;;;21.40;12.93;;;;;;;3.04;97.68;101504.50;5054840;28;20502;-62
2022/12/06 02:21:55;;;;;;;23.90;13.05;;;;;;;3.05;97.40;101517.34;5059042;28;20041;-61
2022/12/06 02:24:38;;;;;;;26.83;13.50;;;;;;;3.06;97.38;101513.94;5060485;28;20062;-62
2022/12/06 02:27:16;;;;;;;22.90;12.98;;;;;;;3.07;97.70;101507.16;5049788;28;20059;-62
2022/12/06 02:30:19;;;;;;;25.73;12.38;;;;;;;3.08;98.02;101507.22;5049020;28;20025;-62
2022/12/06 02:33:05;;;;;;;27.65;13.75;;;;;;;3.09;97.93;101508.06;5063038;28;20040;-62
2022/12/06 02:35:44;;;;;;;;;;;;;;;3.09;98.46;101511.50;5062567;28;20414;-62
2022/12/06 02:38:10;;;;;;;24.45;14.30;;;;;;;3.10;97.90;101508.13;5062223;28;19917;-62
2022/12/06 02:40:40;;;;;;;24.67;13.43;;;;;;;3.12;97.96;101508.16;5051005;28;20102;-62
2022/12/06 02:43:14;;;;;;;22.10;13.45;;;;;;;3.13;97.89;101502.25;5041605;28;20037;-62
2022/12/06 02:45:45;;;;;;;27.25;13.85;;;;;;;3.14;98.51;101489.50;5042821;28;20040;-62
2022/12/06 02:48:13;;;;;;;25.48;13.55;;;;;;;3.16;98.14;101493.00;5042553;28;20029;-62
2022/12/06 02:50:43;;;;;;;24.77;13.40;;;;;;;3.16;98.35;101490.47;5051869;28;20840;-62
2022/12/06 02:53:13;;;;;;;26.30;13.43;;;;;;;3.13;98.31;101492.03;5054090;28;20032;-62
2022/12/06 02:55:41;;;;;;;25.15;13.43;;;;;;;3.14;98.30;101491.22;5046021;28;20032;-62
2022/12/06 02:58:06;;;;;;;27.23;13.73;;;;;;;3.15;98.24;101493.81;5042503;28;20032;-62
2022/12/06 03:00:40;;;;;;;26.60;14.23;;;;;;;3.17;98.36;101494.72;5031162;28;20033;-62
2022/12/06 03:03:23;;;;;;;25.70;12.30;;;;;;;3.19;99.10;101497.34;5041416;28;20051;-62
2022/12/06 03:06:01;;;;;;;25.80;12.80;;;;;;;3.20;98.95;101497.38;5040574;28;20129;-62
2022/12/06 03:08:38;;;;;;;28.60;13.88;;;;;;;3.20;98.82;101488.88;5038174;28;20084;-62
2022/12/06 03:11:04;;;;;;;27.45;13.70;;;;;;;3.20;98.68;101499.94;5044019;28;20037;-62
2022/12/06 03:13:52;;;;;;;33.15;13.38;;;;;;;3.20;98.48;101494.81;5044970;28;20063;-62
2022/12/06 03:16:18;;;;;;;28.80;14.82;;;;;;;3.21;98.76;101500.81;5044319;28;20123;-62
2022/12/06 03:19:03;;;;;;;28.23;14.45;;;;;;;3.18;98.67;101496.47;5034151;28;20470;-62
2022/12/06 03:21:35;;;;;;;27.35;14.75;;;;;;;3.20;99.21;101492.28;5064319;28;20044;-62
2022/12/06 03:24:06;;;;;;;33.15;15.05;;;;;;;3.23;98.96;101488.97;5057047;28;20036;-63
2022/12/06 03:26:33;;;;;;;36.00;15.45;;;;;;;3.24;98.53;101490.69;5048217;28;20050;-62
2022/12/06 03:29:00;;;;;;;34.58;14.68;;;;;;;3.25;99.36;101483.09;5065006;28;20032;-62
2022/12/06 03:31:28;;;;;;;35.92;17.58;;;;;;;3.28;98.97;101484.88;5063039;28;20047;-62
2022/12/06 03:34:06;;;;;;;34.08;15.65;;;;;;;3.30;99.48;101480.66;5063495;28;20066;-62
2022/12/06 03:36:32;;;;;;;41.45;18.13;;;;;;;3.33;99.02;101486.75;5064488;28;20097;-62
2022/12/06 03:39:01;;;;;;;40.22;15.93;;;;;;;3.34;99.45;101485.94;5065118;28;20525;-62
2022/12/06 03:41:31;;;;;;;35.42;15.73;;;;;;;3.37;99.68;101485.19;5063282;28;20063;-61
2022/12/06 03:43:58;;;;;;;36.58;17.27;;;;;;;3.39;99.63;101492.06;5064986;28;20416;-61
2022/12/06 03:46:28;;;;;;;36.05;15.82;;;;;;;3.40;99.34;101490.38;5060291;28;20060;-61
2022/12/06 03:49:13;;;;;;;38.83;15.85;;;;;;;3.41;99.25;101482.75;5064440;28;20128;-61
2022/12/06 03:51:40;;;;;;;35.05;15.82;;;;;;;3.43;99.07;101482.81;5055103;28;20037;-61
2022/12/06 03:54:06;;;;;;;30.20;15.25;;;;;;;3.45;99.28;101478.59;5057478;28;20560;-61
2022/12/06 03:56:35;;;;;;;34.97;16.23;;;;;;;3.47;99.68;101484.63;5044851;28;20047;-61
2022/12/06 03:59:03;;;;;;;38.72;16.33;;;;;;;3.48;99.55;101476.16;5047336;28;20037;-61
2022/12/06 04:01:28;;;;;;;37.40;15.65;;;;;;;3.49;99.83;101478.78;5043716;28;20029;-61
2022/12/06 04:03:54;;;;;;;39.28;16.60;;;;;;;3.48;99.51;101479.56;5055338;28;20471;-62
2022/12/06 04:06:19;;;;;;;40.03;15.57;;;;;;;3.49;99.32;101477.91;5056164;28;20066;-61
2022/12/06 04:08:45;;;;;;;38.72;17.73;;;;;;;3.48;98.92;101479.56;5049116;28;20021;-61
2022/12/06 04:11:10;;;;;;;41.33;16.88;;;;;;;3.50;99.39;101474.50;5040845;28;20045;-61
2022/12/06 04:13:35;;;;;;;34.22;15.75;;;;;;;3.49;99.34;101476.22;5041766;28;20037;-61
2022/12/06 04:16:01;;;;;;;39.70;16.13;;;;;;;3.50;99.43;101477.94;5041542;28;20140;-61
2022/12/06 04:18:27;;;;;;;35.65;17.15;;;;;;;3.52;99.61;101478.00;5052339;28;20033;-61
2022/12/06 04:23:48;;;;;;;32.55;14.88;;;;;;;3.52;99.29;101478.00;5060033;28;20223;-61
2022/12/06 04:26:17;;;;;;;32.75;14.50;;;;;;;3.52;99.97;101478.00;5060969;28;20577;-61
2022/12/06 04:39:39;;;;;;;45.05;17.02;;;;;;;3.54;99.29;101471.22;5064380;28;20056;-61
2022/12/06 04:45:02;;;;;;;40.88;16.42;;;;;;;3.54;99.14;101476.34;5045116;28;20120;-62
2022/12/06 04:47:28;;;;;;;41.42;18.63;;;;;;;3.54;99.54;101479.78;5065354;28;20027;-61
2022/12/06 04:49:53;;;;;;;38.67;17.35;;;;;;;3.56;99.57;101474.69;5063818;28;20044;-61
2022/12/06 04:52:19;;;;;;;46.30;18.75;;;;;;;3.56;99.21;101477.25;5056874;28;20039;-61
2022/12/06 04:54:44;;;;;;;42.58;18.20;;;;;;;3.56;100.00;101476.41;5045231;28;20037;-61
2022/12/06 04:57:12;;;;;;;54.38;21.55;;;;;;;3.56;99.10;101471.28;5044658;28;20029;-61
2022/12/06 04:59:40;;;;;;;43.83;18.73;;;;;;;3.57;99.61;101471.31;5053884;28;20064;-61
2022/12/06 05:02:08;;;;;;;47.15;19.83;;;;;;;3.58;100.00;101469.66;5064372;28;20401;-61
2022/12/06 05:04:34;;;;;;;50.85;19.17;;;;;;;3.57;99.80;101476.44;5059404;28;20033;-61
2022/12/06 05:06:59;;;;;;;50.60;19.88;;;;;;;3.58;100.00;101480.75;5061294;28;20094;-63
2022/12/06 05:09:25;;;;;;;54.00;19.25;;;;;;;3.58;99.43;101478.19;5062375;28;20056;-63
2022/12/06 05:11:50;;;;;;;49.58;19.33;;;;;;;3.57;99.55;101473.88;5064816;28;20163;-63
2022/12/06 05:14:16;;;;;;;57.03;20.80;;;;;;;3.59;100.00;101468.84;5064340;28;20055;-64
2022/12/06 05:16:41;;;;;;;59.20;21.90;;;;;;;3.61;99.75;101472.28;5055052;28;20226;-63
2022/12/06 05:19:06;;;;;;;61.13;20.33;;;;;;;3.63;99.46;101473.19;5063638;28;20064;-63
2022/12/06 05:21:32;;;;;;;59.95;21.60;;;;;;;3.63;99.79;101462.97;5056719;28;20078;-64
2022/12/06 05:23:57;;;;;;;55.28;21.05;;;;;;;3.64;100.00;101465.59;5054309;28;20389;-63
2022/12/06 05:26:25;;;;;;;57.42;22.15;;;;;;;3.66;100.00;101470.75;5052500;28;20013;-64
2022/12/06 05:28:52;;;;;;;51.38;20.77;;;;;;;3.65;100.00;101474.97;5050002;28;20743;-63
2022/12/06 05:31:19;;;;;;;61.25;20.83;;;;;;;3.67;99.53;101470.81;5043165;28;20045;-63
2022/12/06 05:33:44;;;;;;;57.65;19.77;;;;;;;3.67;100.00;101472.47;5048964;28;20036;-63
2022/12/06 05:36:13;;;;;;;59.78;23.15;;;;;;;3.68;100.00;101472.50;5058901;28;20033;-63
2022/12/06 05:38:38;;;;;;;57.80;20.73;;;;;;;3.69;100.00;101474.25;5064690;28;20028;-69
2022/12/06 05:41:04;;;;;;;58.55;20.65;;;;;;;3.70;100.00;101472.59;5062170;28;20039;-69
2022/12/06 05:43:30;;;;;;;51.90;18.55;;;;;;;3.72;99.80;101479.47;5063756;28;20036;-69
2022/12/06 05:45:56;;;;;;;46.95;17.10;;;;;;;3.72;100.00;101476.03;5063579;28;20071;-69
2022/12/06 05:48:22;;;;;;;64.88;21.98;;;;;;;3.71;100.00;101487.94;5057952;28;20410;-69
2022/12/06 05:50:49;;;;;;;55.17;19.95;;;;;;;3.73;100.00;101476.09;5051092;28;20140;-69
2022/12/06 05:53:14;;;;;;;64.95;20.42;;;;;;;3.75;100.00;101476.13;5057153;28;20036;-69
2022/12/06 05:55:40;;;;;;;64.93;20.98;;;;;;;3.76;99.85;101475.31;5057689;28;20318;-68
2022/12/06 05:58:06;;;;;;;58.58;21.90;;;;;;;3.76;99.88;101473.63;5050532;28;20033;-69
2022/12/06 06:00:32;;;;;;;52.83;19.17;;;;;;;3.79;100.00;101476.28;5057028;28;20029;-69
2022/12/06 06:02:58;;;;;;;64.93;22.88;;;;;;;3.79;100.00;101473.72;5063234;28;20028;-68
2022/12/06 06:05:24;;;;;;;53.08;19.88;;;;;;;3.79;100.00;101475.41;5063323;28;20056;-69
2022/12/06 06:07:49;;;;;;;61.88;19.45;;;;;;;3.78;100.00;101471.97;5056268;28;20091;-69
2022/12/06 06:10:15;;;;;;;48.60;17.80;;;;;;;3.79;100.00;101477.97;5062130;28;20416;-69
2022/12/06 06:12:43;;;;;;;49.08;17.70;;;;;;;3.78;100.00;101477.09;5063082;28;20648;-68
2022/12/06 06:15:10;;;;;;;44.67;15.70;;;;;;;3.76;100.00;101478.75;5062840;28;20094;-70
2022/12/06 06:17:36;;;;;;;47.78;17.67;;;;;;;3.77;100.00;101477.03;5061729;28;20074;-69
2022/12/06 06:20:04;;;;;;;48.97;17.25;;;;;;;3.77;100.00;101479.59;5055614;28;20462;-69
2022/12/06 06:22:31;;;;;;;61.38;18.83;;;;;;;3.79;100.00;101485.63;5058521;28;20115;-69
2022/12/06 06:24:56;;;;;;;51.08;17.38;;;;;;;3.79;100.00;101485.63;5054306;28;20163;-69
2022/12/06 06:27:22;;;;;;;41.95;16.90;;;;;;;3.79;100.00;101480.53;5062824;28;20036;-69
2022/12/06 06:29:47;;;;;;;40.90;15.73;;;;;;;3.80;100.00;101477.13;5063160;28;20485;-69
2022/12/06 06:32:12;;;;;;;38.78;16.63;;;;;;;3.82;100.00;101483.19;5060527;28;20501;-70
2022/12/06 06:34:38;;;;;;;36.25;14.07;;;;;;;3.82;100.00;101484.06;5060542;28;20045;-69
2022/12/06 06:37:03;;;;;;;43.70;16.05;;;;;;;3.83;100.00;101484.88;5059009;28;20033;-69
2022/12/06 06:39:28;;;;;;;41.78;16.25;;;;;;;3.85;100.00;101475.59;5060796;28;20162;-69
2022/12/06 06:41:54;;;;;;;33.40;15.90;;;;;;;3.84;100.00;101474.72;5060466;28;20150;-69
2022/12/06 06:44:19;;;;;;;33.42;14.38;;;;;;;3.85;100.00;101478.16;5038094;28;20029;-69
2022/12/06 06:46:45;;;;;;;39.15;17.55;;;;;;;3.85;100.00;101471.34;5039336;28;20037;-69
2022/12/06 06:49:10;;;;;;;42.05;16.88;;;;;;;3.85;100.00;101468.81;5031898;28;20465;-69
2022/12/06 06:51:36;;;;;;;37.05;15.73;;;;;;;3.86;100.00;101474.75;5041891;28;20045;-69
2022/12/06 06:54:01;;;;;;;36.60;15.90;;;;;;;3.85;100.00;101470.50;5034340;28;20041;-67
2022/12/06 06:56:27;;;;;;;41.75;16.95;;;;;;;3.84;100.00;101468.75;5043111;28;20044;-69
2022/12/06 06:58:52;;;;;;;42.20;15.00;;;;;;;3.85;100.00;101476.47;5042397;28;20033;-68
2022/12/06 07:01:20;;;;;;;39.28;16.33;;;;;;;3.86;100.00;101478.19;5043145;28;20530;-69
2022/12/06 07:03:47;;;;;;;47.05;16.52;;;;;;;3.86;100.00;101470.50;5044717;28;20095;-69
2022/12/06 07:06:12;;;;;;;48.53;16.77;;;;;;;3.88;100.00;101471.44;5057446;28;20040;-69
2022/12/06 07:08:39;;;;;;;46.13;17.65;;;;;;;3.90;100.00;101474.03;5053834;28;20025;-69
2022/12/06 07:11:04;;;;;;;37.78;16.83;;;;;;;3.91;100.00;101476.63;5041908;28;20033;-69
2022/12/06 07:13:30;;;;;;;40.17;16.90;;;;;;;3.90;100.00;101468.91;5042546;28;20068;-68
2022/12/06 07:15:57;;;;;;;44.38;18.17;;;;;;;3.91;100.00;101473.22;5043042;28;20070;-69
2022/12/06 07:18:24;;;;;;;45.38;16.60;;;;;;;3.93;100.00;101469.88;5053324;28;20140;-69
2022/12/06 07:20:59;;;;;;;47.13;17.02;;;;;;;3.94;100.00;101469.03;5054034;28;20024;-69
2022/12/06 07:23:25;;;;;;;37.60;14.93;;;;;;;3.94;100.00;101465.66;5061294;28;20075;-69
2022/12/06 07:26:03;;;;;;;41.28;15.32;;;;;;;3.96;100.00;101471.66;5047017;28;20066;-69
2022/12/06 07:28:29;;;;;;;43.00;16.77;;;;;;;3.94;100.00;101463.94;5042814;28;20040;-69
2022/12/06 07:30:55;;;;;;;37.60;15.82;;;;;;;3.95;100.00;101468.22;5039384;28;20037;-69
2022/12/06 07:33:20;;;;;;;41.70;15.93;;;;;;;3.95;100.00;101464.81;5025824;28;20124;-69
2022/12/06 07:35:51;;;;;;;41.25;15.30;;;;;;;3.95;100.00;101465.69;5043174;28;20028;-69
2022/12/06 07:38:17;;;;;;;44.88;16.17;;;;;;;3.95;100.00;101468.22;5042614;28;20037;-69
2022/12/06 07:40:43;;;;;;;37.88;15.45;;;;;;;3.97;100.00;101464.00;5061730;28;20073;-69
2022/12/06 07:45:53;;;;;;;44.70;17.10;;;;;;;3.99;100.00;101475.19;5051047;28;20520;-69
2022/12/06 07:48:19;;;;;;;41.55;15.90;;;;;;;4.02;100.00;101482.94;5063374;28;20258;-69
2022/12/06 07:50:46;;;;;;;44.92;16.63;;;;;;;4.02;100.00;101480.38;5057177;28;20386;-69
2022/12/06 07:53:11;;;;;;;45.08;16.23;;;;;;;4.01;100.00;101478.66;5060182;28;20021;-70
2022/12/06 07:55:37;;;;;;;39.88;15.95;;;;;;;4.02;100.00;101484.63;5042526;28;20039;-68
2022/12/06 07:58:02;;;;;;;48.22;17.13;;;;;;;4.05;100.00;101484.72;5043171;28;20449;-68
2022/12/06 08:00:28;;;;;;;51.65;17.73;;;;;;;4.06;100.00;101482.19;5051450;28;20028;-68
2022/12/06 08:02:53;;;;;;;51.80;19.00;;;;;;;4.06;100.00;101482.19;5063666;28;20062;-68
2022/12/06 08:05:18;;;;;;;51.78;18.00;;;;;;;4.08;100.00;101479.69;5064449;28;20444;-71
2022/12/06 08:07:44;;;;;;;57.83;18.65;;;;;;;4.09;100.00;101484.84;5063969;28;20036;-69
2022/12/06 08:10:09;;;;;;;55.67;19.05;;;;;;;4.10;100.00;101478.91;5045577;28;20037;-69
2022/12/06 08:12:35;;;;;;;50.38;20.52;;;;;;;4.14;100.00;101481.56;5052069;28;20041;-69
2022/12/06 08:15:00;;;;;;;55.85;20.05;;;;;;;4.14;100.00;101485.00;5052260;28;20033;-68
2022/12/06 08:17:28;;;;;;;46.45;18.25;;;;;;;4.14;100.00;101487.56;5053256;28;20031;-69
2022/12/06 08:19:53;;;;;;;49.53;18.45;;;;;;;4.15;100.00;101490.97;5058930;28;20083;-69
2022/12/06 08:22:19;;;;;;;49.78;16.92;;;;;;;4.18;100.00;101496.19;5066047;28;20044;-69
2022/12/06 08:24:44;;;;;;;46.75;18.65;;;;;;;4.22;100.00;101491.19;5066252;28;20039;-69
2022/12/06 08:27:10;;;;;;;52.55;18.42;;;;;;;4.26;100.00;101493.03;5066100;28;20375;-69
2022/12/06 08:29:36;;;;;;;49.58;17.45;;;;;;;4.27;100.00;101492.19;5066338;28;20543;-69
2022/12/06 08:32:02;;;;;;;48.40;18.80;;;;;;;4.28;100.00;101508.41;5064845;28;20036;-69
2022/12/06 08:34:27;;;;;;;58.58;18.98;;;;;;;4.28;100.00;101503.28;5065048;28;20071;-69
2022/12/06 08:36:53;;;;;;;59.53;20.20;;;;;;;4.26;100.00;101507.50;5058635;28;20639;-69
2022/12/06 08:39:18;;;;;;;51.78;18.75;;;;;;;4.24;100.00;101499.75;5059252;28;20032;-69
2022/12/06 08:42:02;;;;;;;54.42;19.50;;;;;;;4.26;100.00;101508.38;5063119;28;20035;-65
2022/12/06 08:44:29;;;;;;;52.80;19.98;;;;;;;4.29;100.00;101511.03;5046332;28;20049;-63
2022/12/06 08:46:58;;;;;;;54.30;20.33;;;;;;;4.31;100.00;101516.16;5054878;28;21101;-64
2022/12/06 08:49:25;;;;;;;59.70;20.15;;;;;;;4.32;100.00;101507.69;5064866;28;20039;-62
2022/12/06 08:51:51;;;;;;;57.25;21.98;;;;;;;4.31;100.00;101506.81;5044310;28;20037;-61
2022/12/06 08:54:21;;;;;;;47.88;18.50;;;;;;;4.36;100.00;101502.69;5034599;28;20041;-61
2022/12/06 08:56:47;;;;;;;63.83;20.70;;;;;;;4.40;100.00;101506.19;5026106;28;20063;-61
2022/12/06 08:59:13;;;;;;;49.58;20.35;;;;;;;4.42;100.00;101510.53;5043568;28;20386;-62
2022/12/06 09:01:39;;;;;;;57.65;20.98;;;;;;;4.40;100.00;101507.06;5059230;28;20039;-61
2022/12/06 09:04:09;;;;;;;54.30;20.17;;;;;;;4.43;100.00;101506.28;5065303;28;20036;-61
2022/12/06 09:06:37;;;;;;;49.40;20.23;;;;;;;4.42;100.00;101507.97;5065221;28;20035;-61
2022/12/06 09:09:03;;;;;;;55.67;21.65;;;;;;;4.43;100.00;101514.84;5059512;28;20465;-62
2022/12/06 09:11:29;;;;;;;56.00;21.63;;;;;;;4.46;100.00;101517.47;5056495;28;20021;-62
2022/12/06 09:13:54;;;;;;;61.90;21.48;;;;;;;4.44;100.00;101515.72;5052270;28;20459;-62
2022/12/06 09:16:21;;;;;;;57.45;20.33;;;;;;;4.44;100.00;101513.16;5044049;28;20505;-61
2022/12/06 09:18:50;;;;;;;62.50;22.75;;;;;;;4.47;100.00;101514.09;5063431;28;20037;-62
2022/12/06 09:21:18;;;;;;;55.35;20.95;;;;;;;4.50;100.00;101514.19;5057470;28;20564;-61
2022/12/06 09:23:44;;;;;;;51.15;20.30;;;;;;;4.50;100.00;101518.44;5064323;28;20072;-61
2022/12/06 09:26:09;;;;;;;47.65;18.25;;;;;;;4.50;100.00;101519.31;5063488;28;20067;-62
2022/12/06 09:28:37;;;;;;;48.85;19.45;;;;;;;4.51;100.00;101515.03;5064793;28;20484;-61
2022/12/06 09:31:04;;;;;;;49.38;18.17;;;;;;;4.52;100.00;101519.34;5063045;28;20037;-61
2022/12/06 09:33:29;;;;;;;42.60;17.85;;;;;;;4.52;100.00;101517.66;5064194;28;20055;-62
2022/12/06 09:35:56;;;;;;;42.58;18.98;;;;;;;4.53;100.00;101524.53;5064792;28;20060;-61
2022/12/06 09:38:26;;;;;;;53.35;19.63;;;;;;;4.55;100.00;101522.84;5064602;28;20098;-61
2022/12/06 09:41:01;;;;;;;42.13;17.55;;;;;;;4.61;100.00;101530.72;5062552;28;20036;-62
2022/12/06 09:43:42;;;;;;;43.45;19.63;;;;;;;4.63;100.00;101534.16;5061226;28;20635;-62
2022/12/06 09:46:19;;;;;;;46.58;19.75;;;;;;;4.65;99.88;101535.09;5064125;28;20095;-63
2022/12/06 09:49:10;;;;;;;44.85;18.65;;;;;;;4.71;100.00;101538.66;5063936;28;20044;-62
2022/12/06 09:52:02;;;;;;;44.60;18.27;;;;;;;4.70;100.00;101530.09;5041764;28;20048;-62
2022/12/06 09:54:55;;;;;;;49.60;19.52;;;;;;;4.71;100.00;101533.53;5050967;28;20029;-62
2022/12/06 09:57:29;;;;;;;47.28;19.02;;;;;;;4.73;100.00;101534.41;5053761;28;20382;-63
2022/12/06 10:00:21;;;;;;;40.00;17.63;;;;;;;4.72;100.00;101530.13;5063923;28;20503;-62
2022/12/06 10:03:14;;;;;;;40.25;16.77;;;;;;;4.73;100.00;101529.31;5063606;28;20106;-62
2022/12/06 10:05:56;;;;;;;38.45;17.45;;;;;;;4.74;100.00;101531.06;5055511;28;20141;-62
2022/12/06 10:08:37;;;;;;;47.17;17.20;;;;;;;4.75;99.89;101530.19;5056916;28;20105;-62
2022/12/06 10:11:21;;;;;;;48.97;19.48;;;;;;;4.81;99.65;101528.69;5062647;28;20063;-62
2022/12/06 10:14:04;;;;;;;50.00;18.80;;;;;;;4.96;100.00;101525.66;5063367;28;20115;-63
2022/12/06 10:16:53;;;;;;;45.90;19.15;;;;;;;5.06;100.00;101520.81;5062725;28;20047;-62
2022/12/06 10:19:25;;;;;;;42.50;15.98;;;;;;;5.15;100.00;101523.63;5053644;28;20041;-62
2022/12/06 10:21:56;;;;;;;38.00;16.70;;;;;;;5.19;99.80;101520.28;5061580;28;20041;-62
2022/12/06 10:24:33;;;;;;;40.00;17.77;;;;;;;5.16;99.95;101520.22;5063254;28;20509;-62
2022/12/06 10:27:19;;;;;;;37.35;17.38;;;;;;;5.14;99.17;101518.44;5062458;28;20149;-63
2022/12/06 10:29:53;;;;;;;37.50;16.95;;;;;;;5.12;99.42;101520.13;5061964;28;20115;-62
2022/12/06 10:33:02;;;;;;;31.35;16.67;;;;;;;5.11;98.75;101520.94;5061968;28;20140;-62
2022/12/06 10:35:53;;;;;;;31.58;15.65;;;;;;;5.10;98.54;101511.53;5049318;28;20057;-62
2022/12/06 10:38:40;;;;;;;43.13;17.67;;;;;;;5.13;98.78;101511.63;5049160;28;20124;-62
2022/12/06 10:41:47;;;;;;;35.97;17.13;;;;;;;5.17;98.78;101509.16;5043042;28;20040;-62
2022/12/06 10:44:19;;;;;;;38.03;16.60;;;;;;;5.24;98.70;101499.94;5039810;28;20054;-62
2022/12/06 10:47:05;;;;;;;36.60;16.25;;;;;;;5.26;98.63;101495.69;5042723;28;20064;-62
2022/12/06 10:49:30;;;;;;;;;;;;;;;5.25;98.67;101491.38;5040376;28;20074;-62
2022/12/06 10:52:20;;;;;;;32.42;15.18;;;;;;;5.21;98.30;101494.72;5031558;28;19920;-62
2022/12/06 10:55:01;;;;;;;34.63;15.15;;;;;;;5.17;98.38;101491.22;5027918;28;20049;-62
2022/12/06 10:57:58;;;;;;;32.58;16.02;;;;;;;5.22;98.38;101491.31;5022994;28;20037;-61
2022/12/06 11:00:27;;;;;;;33.17;15.85;;;;;;;5.25;98.02;101487.97;5034171;28;20500;-62
2022/12/06 11:03:12;;;;;;;32.13;15.18;;;;;;;5.26;98.09;101487.13;5056111;28;20113;-61
2022/12/06 11:05:43;;;;;;;;;;;;;;;5.27;98.03;101492.31;5059758;28;20684;-62
2022/12/06 11:08:18;;;;;;;33.35;14.52;;;;;;;5.26;98.29;101487.13;5057783;28;19916;-62
2022/12/06 11:10:45;;;;;;;30.20;15.27;;;;;;;5.23;97.88;101488.81;5041794;28;20037;-62
2022/12/06 11:13:36;;;;;;;25.98;14.30;;;;;;;5.23;97.69;101486.25;5041165;28;20102;-62
2022/12/06 11:16:21;;;;;;;30.65;15.15;;;;;;;5.23;98.12;101486.25;5045739;28;20035;-62
2022/12/06 11:18:48;;;;;;;28.83;14.93;;;;;;;5.20;97.78;101485.28;5060723;28;20622;-61
2022/12/06 11:21:30;;;;;;;27.45;13.48;;;;;;;5.20;98.04;101482.72;5053982;28;20024;-62
2022/12/06 11:24:21;;;;;;;27.95;15.35;;;;;;;5.19;97.83;101483.53;5060159;28;20119;-62
2022/12/06 11:27:12;;;;;;;30.00;16.02;;;;;;;5.15;97.82;101477.50;5041613;28;20132;-62
2022/12/06 11:29:37;;;;;;;30.63;14.95;;;;;;;5.20;98.23;101477.59;5052515;28;20033;-62
2022/12/06 11:32:06;;;;;;;36.72;17.35;;;;;;;5.25;98.44;101475.16;5047210;28;20477;-62
2022/12/06 11:34:52;;;;;;;30.30;15.20;;;;;;;5.26;97.97;101480.31;5051758;28;20040;-63
2022/12/06 11:37:21;;;;;;;30.17;14.93;;;;;;;5.26;98.10;101477.75;5062728;28;20037;-62
2022/12/06 11:39:49;;;;;;;29.70;15.00;;;;;;;5.27;98.21;101471.81;5065978;28;20426;-62
2022/12/06 11:42:19;;;;;;;27.83;15.73;;;;;;;5.26;98.14;101475.19;5066381;28;20024;-61
2022/12/06 11:44:51;;;;;;;27.98;15.45;;;;;;;5.27;98.11;101471.81;5066806;28;20054;-62
2022/12/06 11:47:23;;;;;;;27.13;15.38;;;;;;;5.31;98.50;101475.31;5066489;28;20032;-62